sensor_id;sensor_type;location;lat;lon;timestamp;P1;P2;P0
55043;PMS5003;54902;50.420;18.854;2023-04-29T00:00:02;42;40;26
55043;PMS5003;54902;50.420;18.854;2023-04-29T00:00:36;42;40;26
55043;PMS5003;54902;50.420;18.854;2023-04-29T00:01:07;42;40;26
55043;PMS5003;54902;50.420;18.854;2023-04-29T00:01:38;42;40;26
55043;PMS5003;54902;50.420;18.854;2023-04-29T00:02:09;42;40;26
55043;PMS5003;54902;50.420;18.854;2023-04-29T00:02:40;46;44;29
55043;PMS5003;54902;50.420;18.854;2023-04-29T00:03:11;46;44;29
55043;PMS5003;54902;50.420;18.854;2023-04-29T00:03:42;46;44;29
55043;PMS5003;54902;50.420;18.854;2023-04-29T00:04:13;46;44;29
55043;PMS5003;54902;50.420;18.854;2023-04-29T00:04:44;46;44;29
55043;PMS5003;54902;50.420;18.854;2023-04-29T00:05:15;46;44;29
55043;PMS5003;54902;50.420;18.854;2023-04-29T00:05:47;46;44;29
55043;PMS5003;54902;50.420;18.854;2023-04-29T00:06:18;46;44;29
55043;PMS5003;54902;50.420;18.854;2023-04-29T00:06:49;46;44;29
55043;PMS5003;54902;50.420;18.854;2023-04-29T00:07:20;46;44;29
55043;PMS5003;54902;50.420;18.854;2023-04-29T00:07:51;46;44;29
55043;PMS5003;54902;50.420;18.854;2023-04-29T00:08:22;46;44;29
55043;PMS5003;54902;50.420;18.854;2023-04-29T00:08:54;46;44;29
55043;PMS5003;54902;50.420;18.854;2023-04-29T00:09:25;46;44;29
55043;PMS5003;54902;50.420;18.854;2023-04-29T00:09:55;35;31;21
55043;PMS5003;54902;50.420;18.854;2023-04-29T00:10:27;35;31;21
55043;PMS5003;54902;50.420;18.854;2023-04-29T00:10:58;35;31;21
55043;PMS5003;54902;50.420;18.854;2023-04-29T00:11:29;35;31;21
55043;PMS5003;54902;50.420;18.854;2023-04-29T00:12:00;35;31;21
55043;PMS5003;54902;50.420;18.854;2023-04-29T00:12:31;35;31;21
55043;PMS5003;54902;50.420;18.854;2023-04-29T00:13:03;44;38;25
55043;PMS5003;54902;50.420;18.854;2023-04-29T00:13:33;44;38;25
55043;PMS5003;54902;50.420;18.854;2023-04-29T00:14:04;44;38;25
55043;PMS5003;54902;50.420;18.854;2023-04-29T00:14:35;44;38;25
55043;PMS5003;54902;50.420;18.854;2023-04-29T00:15:07;34;30;21
55043;PMS5003;54902;50.420;18.854;2023-04-29T00:15:39;34;30;21
55043;PMS5003;54902;50.420;18.854;2023-04-29T00:16:11;34;30;21
55043;PMS5003;54902;50.420;18.854;2023-04-29T00:16:43;34;30;21
55043;PMS5003;54902;50.420;18.854;2023-04-29T00:17:14;34;30;21
55043;PMS5003;54902;50.420;18.854;2023-04-29T00:17:46;34;30;21
55043;PMS5003;54902;50.420;18.854;2023-04-29T00:18:17;40;38;26
55043;PMS5003;54902;50.420;18.854;2023-04-29T00:18:48;40;38;26
55043;PMS5003;54902;50.420;18.854;2023-04-29T00:19:19;40;38;26
55043;PMS5003;54902;50.420;18.854;2023-04-29T00:19:50;40;38;26
55043;PMS5003;54902;50.420;18.854;2023-04-29T00:20:21;40;38;26
55043;PMS5003;54902;50.420;18.854;2023-04-29T00:20:52;40;38;26
55043;PMS5003;54902;50.420;18.854;2023-04-29T00:21:23;40;38;26
55043;PMS5003;54902;50.420;18.854;2023-04-29T00:21:56;40;38;26
55043;PMS5003;54902;50.420;18.854;2023-04-29T00:22:27;40;38;26
55043;PMS5003;54902;50.420;18.854;2023-04-29T00:22:59;40;38;26
55043;PMS5003;54902;50.420;18.854;2023-04-29T00:23:30;45;42;29
55043;PMS5003;54902;50.420;18.854;2023-04-29T00:24:02;45;42;29
55043;PMS5003;54902;50.420;18.854;2023-04-29T00:24:33;45;42;29
55043;PMS5003;54902;50.420;18.854;2023-04-29T00:25:04;45;42;29
55043;PMS5003;54902;50.420;18.854;2023-04-29T00:25:36;45;42;29
55043;PMS5003;54902;50.420;18.854;2023-04-29T00:26:08;45;42;29
55043;PMS5003;54902;50.420;18.854;2023-04-29T00:26:39;45;42;29
55043;PMS5003;54902;50.420;18.854;2023-04-29T00:27:10;45;42;29
55043;PMS5003;54902;50.420;18.854;2023-04-29T00:27:41;45;42;29
55043;PMS5003;54902;50.420;18.854;2023-04-29T00:28:12;45;42;29
55043;PMS5003;54902;50.420;18.854;2023-04-29T00:28:43;45;42;29
55043;PMS5003;54902;50.420;18.854;2023-04-29T00:29:14;31;29;20
55043;PMS5003;54902;50.420;18.854;2023-04-29T00:29:45;31;29;20
55043;PMS5003;54902;50.420;18.854;2023-04-29T00:30:16;31;29;20
55043;PMS5003;54902;50.420;18.854;2023-04-29T00:30:47;31;29;20
55043;PMS5003;54902;50.420;18.854;2023-04-29T00:31:18;31;29;20
55043;PMS5003;54902;50.420;18.854;2023-04-29T00:31:49;31;29;20
55043;PMS5003;54902;50.420;18.854;2023-04-29T00:32:20;31;29;20
55043;PMS5003;54902;50.420;18.854;2023-04-29T00:32:52;31;29;20
55043;PMS5003;54902;50.420;18.854;2023-04-29T00:33:24;31;29;20
55043;PMS5003;54902;50.420;18.854;2023-04-29T00:33:55;48;45;30
55043;PMS5003;54902;50.420;18.854;2023-04-29T00:34:27;48;45;30
55043;PMS5003;54902;50.420;18.854;2023-04-29T00:34:58;48;45;30
55043;PMS5003;54902;50.420;18.854;2023-04-29T00:35:30;48;45;30
55043;PMS5003;54902;50.420;18.854;2023-04-29T00:36:01;48;45;30
55043;PMS5003;54902;50.420;18.854;2023-04-29T00:36:33;33;31;22
55043;PMS5003;54902;50.420;18.854;2023-04-29T00:37:04;33;31;22
55043;PMS5003;54902;50.420;18.854;2023-04-29T00:37:35;33;31;22
55043;PMS5003;54902;50.420;18.854;2023-04-29T00:38:07;33;31;22
55043;PMS5003;54902;50.420;18.854;2023-04-29T00:38:38;33;31;22
55043;PMS5003;54902;50.420;18.854;2023-04-29T00:39:09;35;33;21
55043;PMS5003;54902;50.420;18.854;2023-04-29T00:39:40;35;33;21
55043;PMS5003;54902;50.420;18.854;2023-04-29T00:40:11;35;33;21
55043;PMS5003;54902;50.420;18.854;2023-04-29T00:40:46;35;33;21
55043;PMS5003;54902;50.420;18.854;2023-04-29T00:41:17;35;33;21
55043;PMS5003;54902;50.420;18.854;2023-04-29T00:41:49;35;33;21
55043;PMS5003;54902;50.420;18.854;2023-04-29T00:42:20;35;33;21
55043;PMS5003;54902;50.420;18.854;2023-04-29T00:42:51;35;33;21
55043;PMS5003;54902;50.420;18.854;2023-04-29T00:43:22;35;33;21
55043;PMS5003;54902;50.420;18.854;2023-04-29T00:43:53;35;33;21
55043;PMS5003;54902;50.420;18.854;2023-04-29T00:44:25;42;40;25
55043;PMS5003;54902;50.420;18.854;2023-04-29T00:44:55;42;40;25
55043;PMS5003;54902;50.420;18.854;2023-04-29T00:45:27;42;40;25
55043;PMS5003;54902;50.420;18.854;2023-04-29T00:45:58;42;40;25
55043;PMS5003;54902;50.420;18.854;2023-04-29T00:46:29;42;40;25
55043;PMS5003;54902;50.420;18.854;2023-04-29T00:47:00;42;40;25
55043;PMS5003;54902;50.420;18.854;2023-04-29T00:47:31;42;40;25
55043;PMS5003;54902;50.420;18.854;2023-04-29T00:48:02;42;40;25
55043;PMS5003;54902;50.420;18.854;2023-04-29T00:48:33;42;40;25
55043;PMS5003;54902;50.420;18.854;2023-04-29T00:49:04;42;40;25
55043;PMS5003;54902;50.420;18.854;2023-04-29T00:49:36;42;40;25
55043;PMS5003;54902;50.420;18.854;2023-04-29T00:50:09;42;40;25
55043;PMS5003;54902;50.420;18.854;2023-04-29T00:50:40;42;40;25
55043;PMS5003;54902;50.420;18.854;2023-04-29T00:51:11;42;40;25
55043;PMS5003;54902;50.420;18.854;2023-04-29T00:51:43;42;40;25
55043;PMS5003;54902;50.420;18.854;2023-04-29T00:52:15;42;40;25
55043;PMS5003;54902;50.420;18.854;2023-04-29T00:52:47;42;40;25
55043;PMS5003;54902;50.420;18.854;2023-04-29T00:53:18;42;40;25
55043;PMS5003;54902;50.420;18.854;2023-04-29T00:53:52;35;34;22
55043;PMS5003;54902;50.420;18.854;2023-04-29T00:54:23;35;34;22
55043;PMS5003;54902;50.420;18.854;2023-04-29T00:54:54;22;22;16
55043;PMS5003;54902;50.420;18.854;2023-04-29T00:55:26;22;22;16
55043;PMS5003;54902;50.420;18.854;2023-04-29T00:55:58;22;22;16
55043;PMS5003;54902;50.420;18.854;2023-04-29T00:56:31;22;22;16
55043;PMS5003;54902;50.420;18.854;2023-04-29T00:57:05;22;22;16
55043;PMS5003;54902;50.420;18.854;2023-04-29T00:57:36;22;22;16
55043;PMS5003;54902;50.420;18.854;2023-04-29T00:58:08;22;22;16
55043;PMS5003;54902;50.420;18.854;2023-04-29T00:58:41;22;22;16
55043;PMS5003;54902;50.420;18.854;2023-04-29T00:59:21;22;22;16
55043;PMS5003;54902;50.420;18.854;2023-04-29T00:59:58;22;22;16
55043;PMS5003;54902;50.420;18.854;2023-04-29T01:00:30;34;34;24
55043;PMS5003;54902;50.420;18.854;2023-04-29T01:01:02;31;29;18
55043;PMS5003;54902;50.420;18.854;2023-04-29T01:01:33;31;29;18
55043;PMS5003;54902;50.420;18.854;2023-04-29T01:02:05;31;29;18
55043;PMS5003;54902;50.420;18.854;2023-04-29T01:02:37;31;29;18
55043;PMS5003;54902;50.420;18.854;2023-04-29T01:03:08;31;29;18
55043;PMS5003;54902;50.420;18.854;2023-04-29T01:03:39;31;29;18
55043;PMS5003;54902;50.420;18.854;2023-04-29T01:04:11;31;29;18
55043;PMS5003;54902;50.420;18.854;2023-04-29T01:04:43;31;29;18
55043;PMS5003;54902;50.420;18.854;2023-04-29T01:05:13;31;29;18
55043;PMS5003;54902;50.420;18.854;2023-04-29T01:05:44;43;42;28
55043;PMS5003;54902;50.420;18.854;2023-04-29T01:07:08;43;42;28
55043;PMS5003;54902;50.420;18.854;2023-04-29T01:07:54;30;29;19
55043;PMS5003;54902;50.420;18.854;2023-04-29T01:08:41;30;29;19
55043;PMS5003;54902;50.420;18.854;2023-04-29T01:10:52;30;29;19
55043;PMS5003;54902;50.420;18.854;2023-04-29T01:11:25;30;29;19
55043;PMS5003;54902;50.420;18.854;2023-04-29T01:13:49;40;37;26
55043;PMS5003;54902;50.420;18.854;2023-04-29T01:14:18;40;37;26
55043;PMS5003;54902;50.420;18.854;2023-04-29T01:14:53;40;37;26
55043;PMS5003;54902;50.420;18.854;2023-04-29T01:15:46;40;37;26
55043;PMS5003;54902;50.420;18.854;2023-04-29T01:16:24;40;37;26
55043;PMS5003;54902;50.420;18.854;2023-04-29T01:17:10;40;37;26
55043;PMS5003;54902;50.420;18.854;2023-04-29T01:18:34;40;37;26
55043;PMS5003;54902;50.420;18.854;2023-04-29T01:19:53;43;40;28
55043;PMS5003;54902;50.420;18.854;2023-04-29T01:20:26;43;40;28
55043;PMS5003;54902;50.420;18.854;2023-04-29T01:20:59;43;40;28
55043;PMS5003;54902;50.420;18.854;2023-04-29T01:21:31;43;40;28
55043;PMS5003;54902;50.420;18.854;2023-04-29T01:22:01;43;40;28
55043;PMS5003;54902;50.420;18.854;2023-04-29T01:22:32;43;40;28
55043;PMS5003;54902;50.420;18.854;2023-04-29T01:23:03;43;40;28
55043;PMS5003;54902;50.420;18.854;2023-04-29T01:23:34;43;40;28
55043;PMS5003;54902;50.420;18.854;2023-04-29T01:24:05;43;40;28
55043;PMS5003;54902;50.420;18.854;2023-04-29T01:24:37;43;40;28
55043;PMS5003;54902;50.420;18.854;2023-04-29T01:25:08;43;40;28
55043;PMS5003;54902;50.420;18.854;2023-04-29T01:25:39;43;40;28
55043;PMS5003;54902;50.420;18.854;2023-04-29T01:26:10;43;40;28
55043;PMS5003;54902;50.420;18.854;2023-04-29T01:26:45;43;40;28
55043;PMS5003;54902;50.420;18.854;2023-04-29T01:27:27;43;40;28
55043;PMS5003;54902;50.420;18.854;2023-04-29T01:29:34;33;31;21
55043;PMS5003;54902;50.420;18.854;2023-04-29T01:30:22;33;31;21
55043;PMS5003;54902;50.420;18.854;2023-04-29T01:31:43;32;31;21
55043;PMS5003;54902;50.420;18.854;2023-04-29T01:33:59;31;29;19
55043;PMS5003;54902;50.420;18.854;2023-04-29T01:34:38;31;29;19
55043;PMS5003;54902;50.420;18.854;2023-04-29T01:38:16;31;29;19
55043;PMS5003;54902;50.420;18.854;2023-04-29T01:39:49;47;41;28
55043;PMS5003;54902;50.420;18.854;2023-04-29T01:40:29;47;41;28
55043;PMS5003;54902;50.420;18.854;2023-04-29T01:41:12;31;29;19
55043;PMS5003;54902;50.420;18.854;2023-04-29T01:41:50;31;29;19
55043;PMS5003;54902;50.420;18.854;2023-04-29T01:42:35;31;29;19
55043;PMS5003;54902;50.420;18.854;2023-04-29T01:43:14;31;29;19
55043;PMS5003;54902;50.420;18.854;2023-04-29T01:43:48;31;29;19
55043;PMS5003;54902;50.420;18.854;2023-04-29T01:44:22;31;29;19
55043;PMS5003;54902;50.420;18.854;2023-04-29T01:44:56;31;29;19
55043;PMS5003;54902;50.420;18.854;2023-04-29T01:45:31;38;37;25
55043;PMS5003;54902;50.420;18.854;2023-04-29T01:46:07;38;37;25
55043;PMS5003;54902;50.420;18.854;2023-04-29T01:46:42;22;22;15
55043;PMS5003;54902;50.420;18.854;2023-04-29T01:47:18;22;22;15
55043;PMS5003;54902;50.420;18.854;2023-04-29T01:47:51;22;22;15
55043;PMS5003;54902;50.420;18.854;2023-04-29T01:48:25;22;22;15
55043;PMS5003;54902;50.420;18.854;2023-04-29T01:48:57;22;22;15
55043;PMS5003;54902;50.420;18.854;2023-04-29T01:49:28;22;22;15
55043;PMS5003;54902;50.420;18.854;2023-04-29T01:50:01;22;22;15
55043;PMS5003;54902;50.420;18.854;2023-04-29T01:50:32;22;22;15
55043;PMS5003;54902;50.420;18.854;2023-04-29T01:51:03;33;33;22
55043;PMS5003;54902;50.420;18.854;2023-04-29T01:51:36;33;33;22
55043;PMS5003;54902;50.420;18.854;2023-04-29T01:52:07;33;33;22
55043;PMS5003;54902;50.420;18.854;2023-04-29T01:52:38;33;33;22
55043;PMS5003;54902;50.420;18.854;2023-04-29T01:53:09;33;33;22
55043;PMS5003;54902;50.420;18.854;2023-04-29T01:53:40;33;33;22
55043;PMS5003;54902;50.420;18.854;2023-04-29T01:54:12;33;33;22
55043;PMS5003;54902;50.420;18.854;2023-04-29T01:54:43;33;33;22
55043;PMS5003;54902;50.420;18.854;2023-04-29T01:55:15;33;33;22
55043;PMS5003;54902;50.420;18.854;2023-04-29T01:55:46;33;33;22
55043;PMS5003;54902;50.420;18.854;2023-04-29T01:56:18;34;34;23
55043;PMS5003;54902;50.420;18.854;2023-04-29T01:56:49;34;34;23
55043;PMS5003;54902;50.420;18.854;2023-04-29T01:57:21;23;22;14
55043;PMS5003;54902;50.420;18.854;2023-04-29T01:57:52;23;22;14
55043;PMS5003;54902;50.420;18.854;2023-04-29T01:58:23;23;22;14
55043;PMS5003;54902;50.420;18.854;2023-04-29T01:58:54;23;22;14
55043;PMS5003;54902;50.420;18.854;2023-04-29T01:59:25;23;22;14
55043;PMS5003;54902;50.420;18.854;2023-04-29T01:59:56;23;22;14
55043;PMS5003;54902;50.420;18.854;2023-04-29T02:00:27;23;22;14
55043;PMS5003;54902;50.420;18.854;2023-04-29T02:00:58;23;22;14
55043;PMS5003;54902;50.420;18.854;2023-04-29T02:01:29;31;30;19
55043;PMS5003;54902;50.420;18.854;2023-04-29T02:02:00;31;30;19
55043;PMS5003;54902;50.420;18.854;2023-04-29T02:02:31;31;30;19
55043;PMS5003;54902;50.420;18.854;2023-04-29T02:03:02;27;25;16
55043;PMS5003;54902;50.420;18.854;2023-04-29T02:03:34;27;25;16
55043;PMS5003;54902;50.420;18.854;2023-04-29T02:04:05;27;25;16
55043;PMS5003;54902;50.420;18.854;2023-04-29T02:04:36;27;25;16
55043;PMS5003;54902;50.420;18.854;2023-04-29T02:05:07;27;25;16
55043;PMS5003;54902;50.420;18.854;2023-04-29T02:05:39;27;25;16
55043;PMS5003;54902;50.420;18.854;2023-04-29T02:06:10;27;25;16
55043;PMS5003;54902;50.420;18.854;2023-04-29T02:06:41;36;34;23
55043;PMS5003;54902;50.420;18.854;2023-04-29T02:07:12;36;34;23
55043;PMS5003;54902;50.420;18.854;2023-04-29T02:07:43;36;34;23
55043;PMS5003;54902;50.420;18.854;2023-04-29T02:08:13;36;34;23
55043;PMS5003;54902;50.420;18.854;2023-04-29T02:08:45;36;34;23
55043;PMS5003;54902;50.420;18.854;2023-04-29T02:09:15;36;34;23
55043;PMS5003;54902;50.420;18.854;2023-04-29T02:09:47;36;34;23
55043;PMS5003;54902;50.420;18.854;2023-04-29T02:10:18;36;34;23
55043;PMS5003;54902;50.420;18.854;2023-04-29T02:11:26;36;34;23
55043;PMS5003;54902;50.420;18.854;2023-04-29T02:11:57;39;37;25
55043;PMS5003;54902;50.420;18.854;2023-04-29T02:12:28;39;37;25
55043;PMS5003;54902;50.420;18.854;2023-04-29T02:12:58;39;37;25
55043;PMS5003;54902;50.420;18.854;2023-04-29T02:13:30;27;26;17
55043;PMS5003;54902;50.420;18.854;2023-04-29T02:14:01;27;26;17
55043;PMS5003;54902;50.420;18.854;2023-04-29T02:14:32;27;26;17
55043;PMS5003;54902;50.420;18.854;2023-04-29T02:15:04;27;26;17
55043;PMS5003;54902;50.420;18.854;2023-04-29T02:15:36;27;26;17
55043;PMS5003;54902;50.420;18.854;2023-04-29T02:16:07;27;26;17
55043;PMS5003;54902;50.420;18.854;2023-04-29T02:16:39;27;26;17
55043;PMS5003;54902;50.420;18.854;2023-04-29T02:17:09;34;33;22
55043;PMS5003;54902;50.420;18.854;2023-04-29T02:17:40;34;33;22
55043;PMS5003;54902;50.420;18.854;2023-04-29T02:18:11;34;33;22
55043;PMS5003;54902;50.420;18.854;2023-04-29T02:18:42;34;33;22
55043;PMS5003;54902;50.420;18.854;2023-04-29T02:19:13;34;33;22
55043;PMS5003;54902;50.420;18.854;2023-04-29T02:19:44;34;33;22
55043;PMS5003;54902;50.420;18.854;2023-04-29T02:20:15;34;33;22
55043;PMS5003;54902;50.420;18.854;2023-04-29T02:20:46;34;33;22
55043;PMS5003;54902;50.420;18.854;2023-04-29T02:21:20;34;33;22
55043;PMS5003;54902;50.420;18.854;2023-04-29T02:21:51;34;33;22
55043;PMS5003;54902;50.420;18.854;2023-04-29T02:22:22;37;36;24
55043;PMS5003;54902;50.420;18.854;2023-04-29T02:22:53;37;36;24
55043;PMS5003;54902;50.420;18.854;2023-04-29T02:23:24;37;36;24
55043;PMS5003;54902;50.420;18.854;2023-04-29T02:23:55;37;36;24
55043;PMS5003;54902;50.420;18.854;2023-04-29T02:24:26;37;36;24
55043;PMS5003;54902;50.420;18.854;2023-04-29T02:24:57;37;36;24
55043;PMS5003;54902;50.420;18.854;2023-04-29T02:25:28;37;36;24
55043;PMS5003;54902;50.420;18.854;2023-04-29T02:25:58;37;36;24
55043;PMS5003;54902;50.420;18.854;2023-04-29T02:26:31;37;36;24
55043;PMS5003;54902;50.420;18.854;2023-04-29T02:27:03;37;36;24
55043;PMS5003;54902;50.420;18.854;2023-04-29T02:27:37;37;36;24
55043;PMS5003;54902;50.420;18.854;2023-04-29T02:28:08;37;36;24
55043;PMS5003;54902;50.420;18.854;2023-04-29T02:28:39;37;36;24
55043;PMS5003;54902;50.420;18.854;2023-04-29T02:29:10;37;36;24
55043;PMS5003;54902;50.420;18.854;2023-04-29T02:29:41;25;24;16
55043;PMS5003;54902;50.420;18.854;2023-04-29T02:30:12;25;24;16
55043;PMS5003;54902;50.420;18.854;2023-04-29T02:30:43;25;24;16
55043;PMS5003;54902;50.420;18.854;2023-04-29T02:31:14;25;24;16
55043;PMS5003;54902;50.420;18.854;2023-04-29T02:31:45;25;24;16
55043;PMS5003;54902;50.420;18.854;2023-04-29T02:32:16;25;24;16
55043;PMS5003;54902;50.420;18.854;2023-04-29T02:32:49;33;30;20
55043;PMS5003;54902;50.420;18.854;2023-04-29T02:33:22;33;30;20
55043;PMS5003;54902;50.420;18.854;2023-04-29T02:33:53;33;30;20
55043;PMS5003;54902;50.420;18.854;2023-04-29T02:34:24;33;30;20
55043;PMS5003;54902;50.420;18.854;2023-04-29T02:34:56;33;30;20
55043;PMS5003;54902;50.420;18.854;2023-04-29T02:35:27;33;30;20
55043;PMS5003;54902;50.420;18.854;2023-04-29T02:35:58;33;30;20
55043;PMS5003;54902;50.420;18.854;2023-04-29T02:36:29;33;30;20
55043;PMS5003;54902;50.420;18.854;2023-04-29T02:37:00;33;30;20
55043;PMS5003;54902;50.420;18.854;2023-04-29T02:37:32;33;30;20
55043;PMS5003;54902;50.420;18.854;2023-04-29T02:38:03;5;4;2
55043;PMS5003;54902;50.420;18.854;2023-04-29T02:38:34;5;4;2
55043;PMS5003;54902;50.420;18.854;2023-04-29T02:39:05;5;4;2
55043;PMS5003;54902;50.420;18.854;2023-04-29T02:39:36;5;4;2
55043;PMS5003;54902;50.420;18.854;2023-04-29T02:40:07;5;4;2
55043;PMS5003;54902;50.420;18.854;2023-04-29T02:40:42;5;4;2
55043;PMS5003;54902;50.420;18.854;2023-04-29T02:41:17;5;4;2
55043;PMS5003;54902;50.420;18.854;2023-04-29T02:41:47;5;4;2
55043;PMS5003;54902;50.420;18.854;2023-04-29T02:42:18;5;4;2
55043;PMS5003;54902;50.420;18.854;2023-04-29T02:42:49;14;12;6
55043;PMS5003;54902;50.420;18.854;2023-04-29T02:43:20;32;31;20
55043;PMS5003;54902;50.420;18.854;2023-04-29T02:43:52;32;31;20
55043;PMS5003;54902;50.420;18.854;2023-04-29T02:44:23;32;31;20
55043;PMS5003;54902;50.420;18.854;2023-04-29T02:44:53;32;31;20
55043;PMS5003;54902;50.420;18.854;2023-04-29T02:45:25;32;31;20
55043;PMS5003;54902;50.420;18.854;2023-04-29T02:45:56;32;31;20
55043;PMS5003;54902;50.420;18.854;2023-04-29T02:46:27;32;31;20
55043;PMS5003;54902;50.420;18.854;2023-04-29T02:46:58;32;31;20
55043;PMS5003;54902;50.420;18.854;2023-04-29T02:47:29;32;31;20
55043;PMS5003;54902;50.420;18.854;2023-04-29T02:48:00;32;31;20
55043;PMS5003;54902;50.420;18.854;2023-04-29T02:48:30;47;44;28
55043;PMS5003;54902;50.420;18.854;2023-04-29T02:49:01;47;44;28
55043;PMS5003;54902;50.420;18.854;2023-04-29T02:49:33;47;44;28
55043;PMS5003;54902;50.420;18.854;2023-04-29T02:50:04;47;44;28
55043;PMS5003;54902;50.420;18.854;2023-04-29T02:50:36;47;44;28
55043;PMS5003;54902;50.420;18.854;2023-04-29T02:51:07;47;44;28
55043;PMS5003;54902;50.420;18.854;2023-04-29T02:51:38;47;44;28
55043;PMS5003;54902;50.420;18.854;2023-04-29T02:52:11;47;44;28
55043;PMS5003;54902;50.420;18.854;2023-04-29T02:52:43;47;44;28
55043;PMS5003;54902;50.420;18.854;2023-04-29T02:53:15;47;44;28
55043;PMS5003;54902;50.420;18.854;2023-04-29T02:53:46;47;44;28
55043;PMS5003;54902;50.420;18.854;2023-04-29T02:54:17;47;44;28
55043;PMS5003;54902;50.420;18.854;2023-04-29T02:54:48;47;44;28
55043;PMS5003;54902;50.420;18.854;2023-04-29T02:55:19;47;44;28
55043;PMS5003;54902;50.420;18.854;2023-04-29T02:55:50;47;44;28
55043;PMS5003;54902;50.420;18.854;2023-04-29T02:56:21;47;44;28
55043;PMS5003;54902;50.420;18.854;2023-04-29T02:56:52;47;44;28
55043;PMS5003;54902;50.420;18.854;2023-04-29T02:57:23;47;44;28
55043;PMS5003;54902;50.420;18.854;2023-04-29T02:57:54;47;44;28
55043;PMS5003;54902;50.420;18.854;2023-04-29T02:58:25;44;41;26
55043;PMS5003;54902;50.420;18.854;2023-04-29T02:58:56;28;26;20
55043;PMS5003;54902;50.420;18.854;2023-04-29T02:59:27;28;26;20
55043;PMS5003;54902;50.420;18.854;2023-04-29T02:59:58;28;26;20
55043;PMS5003;54902;50.420;18.854;2023-04-29T03:00:29;28;26;20
55043;PMS5003;54902;50.420;18.854;2023-04-29T03:01:00;28;26;20
55043;PMS5003;54902;50.420;18.854;2023-04-29T03:01:31;28;26;20
55043;PMS5003;54902;50.420;18.854;2023-04-29T03:02:02;28;26;20
55043;PMS5003;54902;50.420;18.854;2023-04-29T03:02:33;28;26;20
55043;PMS5003;54902;50.420;18.854;2023-04-29T03:03:04;28;26;20
55043;PMS5003;54902;50.420;18.854;2023-04-29T03:03:35;28;26;20
55043;PMS5003;54902;50.420;18.854;2023-04-29T03:04:06;42;38;28
55043;PMS5003;54902;50.420;18.854;2023-04-29T03:04:37;42;38;28
55043;PMS5003;54902;50.420;18.854;2023-04-29T03:05:09;42;38;28
55043;PMS5003;54902;50.420;18.854;2023-04-29T03:05:40;42;38;28
55043;PMS5003;54902;50.420;18.854;2023-04-29T03:06:11;42;38;28
55043;PMS5003;54902;50.420;18.854;2023-04-29T03:06:42;42;38;28
55043;PMS5003;54902;50.420;18.854;2023-04-29T03:07:13;42;38;28
55043;PMS5003;54902;50.420;18.854;2023-04-29T03:07:46;42;38;28
55043;PMS5003;54902;50.420;18.854;2023-04-29T03:08:17;42;38;28
55043;PMS5003;54902;50.420;18.854;2023-04-29T03:08:48;42;38;28
55043;PMS5003;54902;50.420;18.854;2023-04-29T03:09:19;42;38;28
55043;PMS5003;54902;50.420;18.854;2023-04-29T03:09:51;27;25;17
55043;PMS5003;54902;50.420;18.854;2023-04-29T03:10:22;27;25;17
55043;PMS5003;54902;50.420;18.854;2023-04-29T03:10:53;27;25;17
55043;PMS5003;54902;50.420;18.854;2023-04-29T03:11:24;27;25;17
55043;PMS5003;54902;50.420;18.854;2023-04-29T03:11:55;27;25;17
55043;PMS5003;54902;50.420;18.854;2023-04-29T03:12:26;27;25;17
55043;PMS5003;54902;50.420;18.854;2023-04-29T03:12:57;27;25;17
55043;PMS5003;54902;50.420;18.854;2023-04-29T03:13:28;27;25;17
55043;PMS5003;54902;50.420;18.854;2023-04-29T03:13:59;27;25;17
55043;PMS5003;54902;50.420;18.854;2023-04-29T03:14:30;49;43;29
55043;PMS5003;54902;50.420;18.854;2023-04-29T03:15:01;49;43;29
55043;PMS5003;54902;50.420;18.854;2023-04-29T03:15:32;49;43;29
55043;PMS5003;54902;50.420;18.854;2023-04-29T03:16:04;49;43;29
55043;PMS5003;54902;50.420;18.854;2023-04-29T03:16:36;49;43;29
55043;PMS5003;54902;50.420;18.854;2023-04-29T03:17:07;49;43;29
55043;PMS5003;54902;50.420;18.854;2023-04-29T03:17:38;49;43;29
55043;PMS5003;54902;50.420;18.854;2023-04-29T03:18:09;49;43;29
55043;PMS5003;54902;50.420;18.854;2023-04-29T03:18:40;49;43;29
55043;PMS5003;54902;50.420;18.854;2023-04-29T03:19:12;49;43;29
55043;PMS5003;54902;50.420;18.854;2023-04-29T03:19:43;49;43;29
55043;PMS5003;54902;50.420;18.854;2023-04-29T03:20:14;49;43;29
55043;PMS5003;54902;50.420;18.854;2023-04-29T03:20:45;49;43;29
55043;PMS5003;54902;50.420;18.854;2023-04-29T03:21:16;49;43;29
55043;PMS5003;54902;50.420;18.854;2023-04-29T03:21:47;49;43;29
55043;PMS5003;54902;50.420;18.854;2023-04-29T03:22:17;49;43;29
55043;PMS5003;54902;50.420;18.854;2023-04-29T03:22:49;49;43;29
55043;PMS5003;54902;50.420;18.854;2023-04-29T03:23:20;49;43;29
55043;PMS5003;54902;50.420;18.854;2023-04-29T03:23:51;49;43;29
55043;PMS5003;54902;50.420;18.854;2023-04-29T03:24:22;49;43;29
55043;PMS5003;54902;50.420;18.854;2023-04-29T03:24:53;49;43;29
55043;PMS5003;54902;50.420;18.854;2023-04-29T03:25:24;49;43;29
55043;PMS5003;54902;50.420;18.854;2023-04-29T03:25:55;49;43;29
55043;PMS5003;54902;50.420;18.854;2023-04-29T03:26:26;49;43;29
55043;PMS5003;54902;50.420;18.854;2023-04-29T03:26:57;49;43;29
55043;PMS5003;54902;50.420;18.854;2023-04-29T03:27:30;49;43;29
55043;PMS5003;54902;50.420;18.854;2023-04-29T03:28:01;49;43;29
55043;PMS5003;54902;50.420;18.854;2023-04-29T03:28:33;49;43;29
55043;PMS5003;54902;50.420;18.854;2023-04-29T03:29:04;49;43;29
55043;PMS5003;54902;50.420;18.854;2023-04-29T03:29:35;49;43;29
55043;PMS5003;54902;50.420;18.854;2023-04-29T03:30:07;49;43;29
55043;PMS5003;54902;50.420;18.854;2023-04-29T03:30:38;49;43;29
55043;PMS5003;54902;50.420;18.854;2023-04-29T03:31:09;49;43;29
55043;PMS5003;54902;50.420;18.854;2023-04-29T03:31:41;49;43;29
55043;PMS5003;54902;50.420;18.854;2023-04-29T03:32:12;49;43;29
55043;PMS5003;54902;50.420;18.854;2023-04-29T03:32:43;49;43;29
55043;PMS5003;54902;50.420;18.854;2023-04-29T03:33:14;49;43;29
55043;PMS5003;54902;50.420;18.854;2023-04-29T03:33:46;49;43;29
55043;PMS5003;54902;50.420;18.854;2023-04-29T03:34:17;49;43;29
55043;PMS5003;54902;50.420;18.854;2023-04-29T03:34:48;49;43;29
55043;PMS5003;54902;50.420;18.854;2023-04-29T03:35:18;49;43;29
55043;PMS5003;54902;50.420;18.854;2023-04-29T03:35:49;49;43;29
55043;PMS5003;54902;50.420;18.854;2023-04-29T03:36:20;49;43;29